sensor_id;sensor_type;location;lat;lon;timestamp;P1;durP1;ratioP1;P2;durP2;ratioP2
34643;SDS011;26931;43.498;-1.506;2022-11-09T00:00:50;1.80;;;1.70;;
34643;SDS011;26931;43.498;-1.506;2022-11-09T00:03:17;2.63;;;1.85;;
34643;SDS011;26931;43.498;-1.506;2022-11-09T00:05:43;1.90;;;1.80;;
34643;SDS011;26931;43.498;-1.506;2022-11-09T00:08:19;3.88;;;1.98;;
34643;SDS011;26931;43.498;-1.506;2022-11-09T00:10:45;4.20;;;1.75;;
34643;SDS011;26931;43.498;-1.506;2022-11-09T00:13:11;1.98;;;1.73;;
34643;SDS011;26931;43.498;-1.506;2022-11-09T00:15:37;1.67;;;1.58;;
34643;SDS011;26931;43.498;-1.506;2022-11-09T00:18:02;3.60;;;2.25;;
34643;SDS011;26931;43.498;-1.506;2022-11-09T00:20:28;3.25;;;1.90;;
34643;SDS011;26931;43.498;-1.506;2022-11-09T00:22:54;2.40;;;2.00;;
34643;SDS011;26931;43.498;-1.506;2022-11-09T00:25:21;2.33;;;1.70;;
34643;SDS011;26931;43.498;-1.506;2022-11-09T00:27:47;3.03;;;2.00;;
34643;SDS011;26931;43.498;-1.506;2022-11-09T00:30:13;2.05;;;1.73;;
34643;SDS011;26931;43.498;-1.506;2022-11-09T00:32:39;1.95;;;1.67;;
34643;SDS011;26931;43.498;-1.506;2022-11-09T00:35:05;1.88;;;1.75;;
34643;SDS011;26931;43.498;-1.506;2022-11-09T00:37:32;2.55;;;1.90;;
34643;SDS011;26931;43.498;-1.506;2022-11-09T00:39:58;3.17;;;1.80;;
34643;SDS011;26931;43.498;-1.506;2022-11-09T00:42:24;1.95;;;1.80;;
34643;SDS011;26931;43.498;-1.506;2022-11-09T00:44:50;3.50;;;2.13;;
34643;SDS011;26931;43.498;-1.506;2022-11-09T00:47:16;3.80;;;2.30;;
34643;SDS011;26931;43.498;-1.506;2022-11-09T00:49:42;2.47;;;1.90;;
34643;SDS011;26931;43.498;-1.506;2022-11-09T00:52:08;2.97;;;2.20;;
34643;SDS011;26931;43.498;-1.506;2022-11-09T00:54:34;3.17;;;2.22;;
34643;SDS011;26931;43.498;-1.506;2022-11-09T00:57:00;2.10;;;1.90;;
34643;SDS011;26931;43.498;-1.506;2022-11-09T00:59:26;2.20;;;1.77;;
34643;SDS011;26931;43.498;-1.506;2022-11-09T01:01:52;2.97;;;1.90;;
34643;SDS011;26931;43.498;-1.506;2022-11-09T01:04:18;3.10;;;1.80;;
34643;SDS011;26931;43.498;-1.506;2022-11-09T01:06:44;2.55;;;1.70;;
34643;SDS011;26931;43.498;-1.506;2022-11-09T01:09:10;6.13;;;2.22;;
34643;SDS011;26931;43.498;-1.506;2022-11-09T01:11:36;3.50;;;1.95;;
34643;SDS011;26931;43.498;-1.506;2022-11-09T01:14:03;2.30;;;1.80;;
34643;SDS011;26931;43.498;-1.506;2022-11-09T01:16:29;3.83;;;1.80;;
34643;SDS011;26931;43.498;-1.506;2022-11-09T01:18:55;1.75;;;1.60;;
34643;SDS011;26931;43.498;-1.506;2022-11-09T01:21:22;3.67;;;1.70;;
34643;SDS011;26931;43.498;-1.506;2022-11-09T01:23:49;3.50;;;1.70;;
34643;SDS011;26931;43.498;-1.506;2022-11-09T01:26:15;2.38;;;1.80;;
34643;SDS011;26931;43.498;-1.506;2022-11-09T01:28:41;2.72;;;1.83;;
34643;SDS011;26931;43.498;-1.506;2022-11-09T01:31:09;2.10;;;1.90;;
34643;SDS011;26931;43.498;-1.506;2022-11-09T01:33:37;2.70;;;1.70;;
34643;SDS011;26931;43.498;-1.506;2022-11-09T01:36:04;1.60;;;1.50;;
34643;SDS011;26931;43.498;-1.506;2022-11-09T01:38:32;2.42;;;1.73;;
34643;SDS011;26931;43.498;-1.506;2022-11-09T01:40:59;2.15;;;1.50;;
34643;SDS011;26931;43.498;-1.506;2022-11-09T01:43:26;3.95;;;1.95;;
34643;SDS011;26931;43.498;-1.506;2022-11-09T01:45:59;4.03;;;1.85;;
34643;SDS011;26931;43.498;-1.506;2022-11-09T01:48:55;2.25;;;1.60;;
34643;SDS011;26931;43.498;-1.506;2022-11-09T01:51:23;2.45;;;1.75;;
34643;SDS011;26931;43.498;-1.506;2022-11-09T01:53:57;2.95;;;1.63;;
34643;SDS011;26931;43.498;-1.506;2022-11-09T01:56:34;2.22;;;1.65;;
34643;SDS011;26931;43.498;-1.506;2022-11-09T01:59:03;3.40;;;1.70;;
34643;SDS011;26931;43.498;-1.506;2022-11-09T02:01:34;2.85;;;1.70;;
34643;SDS011;26931;43.498;-1.506;2022-11-09T02:06:37;1.90;;;1.60;;
34643;SDS011;26931;43.498;-1.506;2022-11-09T02:09:16;4.45;;;1.92;;
34643;SDS011;26931;43.498;-1.506;2022-11-09T02:11:52;3.63;;;2.05;;
34643;SDS011;26931;43.498;-1.506;2022-11-09T02:14:18;2.25;;;1.70;;
34643;SDS011;26931;43.498;-1.506;2022-11-09T02:16:46;1.67;;;1.58;;
34643;SDS011;26931;43.498;-1.506;2022-11-09T02:19:13;2.15;;;1.80;;
34643;SDS011;26931;43.498;-1.506;2022-11-09T02:21:39;2.78;;;1.70;;
34643;SDS011;26931;43.498;-1.506;2022-11-09T02:24:05;3.65;;;1.70;;
34643;SDS011;26931;43.498;-1.506;2022-11-09T02:26:42;3.08;;;1.83;;
34643;SDS011;26931;43.498;-1.506;2022-11-09T02:29:13;3.10;;;2.10;;
34643;SDS011;26931;43.498;-1.506;2022-11-09T02:31:53;4.07;;;1.95;;
34643;SDS011;26931;43.498;-1.506;2022-11-09T02:34:22;3.08;;;1.80;;
34643;SDS011;26931;43.498;-1.506;2022-11-09T02:36:49;3.45;;;1.70;;
34643;SDS011;26931;43.498;-1.506;2022-11-09T02:39:17;4.55;;;1.77;;
34643;SDS011;26931;43.498;-1.506;2022-11-09T02:41:56;2.13;;;1.83;;
34643;SDS011;26931;43.498;-1.506;2022-11-09T02:44:23;1.70;;;1.60;;
34643;SDS011;26931;43.498;-1.506;2022-11-09T02:46:50;2.10;;;1.70;;
34643;SDS011;26931;43.498;-1.506;2022-11-09T02:49:16;2.10;;;1.90;;
34643;SDS011;26931;43.498;-1.506;2022-11-09T02:51:42;1.83;;;1.70;;
34643;SDS011;26931;43.498;-1.506;2022-11-09T02:54:08;1.92;;;1.70;;
34643;SDS011;26931;43.498;-1.506;2022-11-09T02:56:34;2.95;;;1.75;;
34643;SDS011;26931;43.498;-1.506;2022-11-09T02:59:00;2.22;;;1.60;;
34643;SDS011;26931;43.498;-1.506;2022-11-09T03:01:27;2.17;;;1.50;;
34643;SDS011;26931;43.498;-1.506;2022-11-09T03:03:53;3.38;;;2.17;;
34643;SDS011;26931;43.498;-1.506;2022-11-09T03:06:20;2.65;;;1.92;;
34643;SDS011;26931;43.498;-1.506;2022-11-09T03:08:59;2.97;;;1.98;;
34643;SDS011;26931;43.498;-1.506;2022-11-09T03:11:34;3.78;;;1.92;;
34643;SDS011;26931;43.498;-1.506;2022-11-09T03:14:01;3.42;;;1.70;;
34643;SDS011;26931;43.498;-1.506;2022-11-09T03:16:28;1.92;;;1.70;;
34643;SDS011;26931;43.498;-1.506;2022-11-09T03:18:54;2.65;;;1.70;;
34643;SDS011;26931;43.498;-1.506;2022-11-09T03:21:22;2.58;;;1.80;;
34643;SDS011;26931;43.498;-1.506;2022-11-09T03:23:49;1.92;;;1.77;;
34643;SDS011;26931;43.498;-1.506;2022-11-09T03:26:15;3.42;;;1.70;;
34643;SDS011;26931;43.498;-1.506;2022-11-09T03:28:41;2.42;;;1.70;;
34643;SDS011;26931;43.498;-1.506;2022-11-09T03:31:07;3.25;;;1.60;;
34643;SDS011;26931;43.498;-1.506;2022-11-09T03:33:34;2.30;;;1.60;;
34643;SDS011;26931;43.498;-1.506;2022-11-09T03:36:00;3.00;;;1.88;;
34643;SDS011;26931;43.498;-1.506;2022-11-09T03:38:26;2.03;;;1.80;;
34643;SDS011;26931;43.498;-1.506;2022-11-09T03:40:52;1.45;;;1.35;;
34643;SDS011;26931;43.498;-1.506;2022-11-09T03:43:18;5.75;;;1.85;;
34643;SDS011;26931;43.498;-1.506;2022-11-09T03:45:45;2.58;;;1.52;;
34643;SDS011;26931;43.498;-1.506;2022-11-09T03:48:12;3.45;;;1.90;;
34643;SDS011;26931;43.498;-1.506;2022-11-09T03:50:38;2.50;;;1.83;;
34643;SDS011;26931;43.498;-1.506;2022-11-09T03:53:05;3.08;;;1.90;;
34643;SDS011;26931;43.498;-1.506;2022-11-09T03:55:34;1.80;;;1.60;;
34643;SDS011;26931;43.498;-1.506;2022-11-09T03:58:01;2.63;;;1.70;;
34643;SDS011;26931;43.498;-1.506;2022-11-09T04:00:27;3.13;;;1.90;;
34643;SDS011;26931;43.498;-1.506;2022-11-09T04:02:54;1.95;;;1.58;;
34643;SDS011;26931;43.498;-1.506;2022-11-09T04:05:20;5.22;;;2.17;;
34643;SDS011;26931;43.498;-1.506;2022-11-09T04:07:47;1.98;;;1.70;;
34643;SDS011;26931;43.498;-1.506;2022-11-09T04:10:23;2.80;;;1.70;;
34643;SDS011;26931;43.498;-1.506;2022-11-09T04:12:52;2.20;;;1.80;;
34643;SDS011;26931;43.498;-1.506;2022-11-09T04:15:18;2.53;;;1.52;;
34643;SDS011;26931;43.498;-1.506;2022-11-09T04:17:52;3.38;;;1.70;;
34643;SDS011;26931;43.498;-1.506;2022-11-09T04:20:22;4.43;;;1.80;;
34643;SDS011;26931;43.498;-1.506;2022-11-09T04:22:52;1.90;;;1.63;;
34643;SDS011;26931;43.498;-1.506;2022-11-09T04:25:24;2.05;;;1.85;;
34643;SDS011;26931;43.498;-1.506;2022-11-09T04:27:54;4.82;;;1.70;;
34643;SDS011;26931;43.498;-1.506;2022-11-09T04:30:21;3.30;;;1.60;;
34643;SDS011;26931;43.498;-1.506;2022-11-09T04:32:47;1.95;;;1.70;;
34643;SDS011;26931;43.498;-1.506;2022-11-09T04:35:13;2.90;;;1.88;;
34643;SDS011;26931;43.498;-1.506;2022-11-09T04:37:39;2.85;;;2.33;;
34643;SDS011;26931;43.498;-1.506;2022-11-09T04:40:06;1.73;;;1.63;;
34643;SDS011;26931;43.498;-1.506;2022-11-09T04:42:32;2.42;;;1.80;;
34643;SDS011;26931;43.498;-1.506;2022-11-09T04:44:58;3.13;;;1.70;;
34643;SDS011;26931;43.498;-1.506;2022-11-09T04:47:24;2.47;;;2.08;;
34643;SDS011;26931;43.498;-1.506;2022-11-09T04:49:51;5.60;;;2.00;;
34643;SDS011;26931;43.498;-1.506;2022-11-09T04:52:17;2.17;;;1.80;;
34643;SDS011;26931;43.498;-1.506;2022-11-09T04:54:43;2.72;;;1.90;;
34643;SDS011;26931;43.498;-1.506;2022-11-09T04:57:09;3.33;;;1.90;;
34643;SDS011;26931;43.498;-1.506;2022-11-09T04:59:38;2.20;;;2.00;;
34643;SDS011;26931;43.498;-1.506;2022-11-09T05:02:04;5.30;;;2.28;;
34643;SDS011;26931;43.498;-1.506;2022-11-09T05:04:30;2.10;;;1.90;;
34643;SDS011;26931;43.498;-1.506;2022-11-09T05:06:56;1.70;;;1.60;;
34643;SDS011;26931;43.498;-1.506;2022-11-09T05:09:22;3.92;;;1.90;;
34643;SDS011;26931;43.498;-1.506;2022-11-09T05:11:50;2.30;;;1.63;;
34643;SDS011;26931;43.498;-1.506;2022-11-09T05:14:16;3.85;;;1.90;;
34643;SDS011;26931;43.498;-1.506;2022-11-09T05:16:42;2.65;;;2.08;;
34643;SDS011;26931;43.498;-1.506;2022-11-09T05:19:08;3.00;;;1.88;;
34643;SDS011;26931;43.498;-1.506;2022-11-09T05:21:34;3.30;;;1.83;;
34643;SDS011;26931;43.498;-1.506;2022-11-09T05:24:00;3.25;;;1.75;;
34643;SDS011;26931;43.498;-1.506;2022-11-09T05:26:31;3.22;;;1.88;;
34643;SDS011;26931;43.498;-1.506;2022-11-09T05:29:00;2.10;;;1.77;;
34643;SDS011;26931;43.498;-1.506;2022-11-09T05:31:28;1.77;;;1.50;;
34643;SDS011;26931;43.498;-1.506;2022-11-09T05:33:54;2.03;;;1.83;;
34643;SDS011;26931;43.498;-1.506;2022-11-09T05:36:20;2.88;;;2.22;;
34643;SDS011;26931;43.498;-1.506;2022-11-09T05:38:47;1.83;;;1.67;;
34643;SDS011;26931;43.498;-1.506;2022-11-09T05:41:14;2.97;;;1.88;;
34643;SDS011;26931;43.498;-1.506;2022-11-09T05:43:40;2.75;;;2.08;;
34643;SDS011;26931;43.498;-1.506;2022-11-09T05:46:08;11.93;;;4.25;;
34643;SDS011;26931;43.498;-1.506;2022-11-09T05:48:35;25.60;;;7.30;;
34643;SDS011;26931;43.498;-1.506;2022-11-09T05:51:01;21.63;;;7.43;;
34643;SDS011;26931;43.498;-1.506;2022-11-09T05:53:28;30.52;;;8.85;;
34643;SDS011;26931;43.498;-1.506;2022-11-09T05:55:55;37.83;;;8.30;;
34643;SDS011;26931;43.498;-1.506;2022-11-09T05:58:25;25.13;;;7.75;;
34643;SDS011;26931;43.498;-1.506;2022-11-09T06:00:51;17.73;;;6.22;;
34643;SDS011;26931;43.498;-1.506;2022-11-09T06:03:17;22.38;;;6.07;;
34643;SDS011;26931;43.498;-1.506;2022-11-09T06:05:43;24.70;;;6.50;;
34643;SDS011;26931;43.498;-1.506;2022-11-09T06:08:10;25.52;;;6.82;;
34643;SDS011;26931;43.498;-1.506;2022-11-09T06:10:39;25.77;;;7.03;;
34643;SDS011;26931;43.498;-1.506;2022-11-09T06:13:05;25.88;;;6.47;;
34643;SDS011;26931;43.498;-1.506;2022-11-09T06:15:32;28.77;;;7.85;;
34643;SDS011;26931;43.498;-1.506;2022-11-09T06:17:58;32.42;;;8.82;;
34643;SDS011;26931;43.498;-1.506;2022-11-09T06:20:25;29.83;;;9.02;;
34643;SDS011;26931;43.498;-1.506;2022-11-09T06:22:55;31.67;;;9.10;;
34643;SDS011;26931;43.498;-1.506;2022-11-09T06:25:22;29.25;;;8.88;;
34643;SDS011;26931;43.498;-1.506;2022-11-09T06:27:48;35.72;;;9.63;;
34643;SDS011;26931;43.498;-1.506;2022-11-09T06:30:15;39.67;;;11.00;;
34643;SDS011;26931;43.498;-1.506;2022-11-09T06:32:41;47.28;;;11.98;;
34643;SDS011;26931;43.498;-1.506;2022-11-09T06:35:07;48.13;;;12.88;;
34643;SDS011;26931;43.498;-1.506;2022-11-09T06:37:33;44.38;;;11.48;;
34643;SDS011;26931;43.498;-1.506;2022-11-09T06:39:59;37.55;;;11.95;;
34643;SDS011;26931;43.498;-1.506;2022-11-09T06:42:26;39.67;;;10.20;;
34643;SDS011;26931;43.498;-1.506;2022-11-09T06:44:52;39.65;;;12.07;;
34643;SDS011;26931;43.498;-1.506;2022-11-09T06:47:18;40.80;;;11.10;;
34643;SDS011;26931;43.498;-1.506;2022-11-09T06:49:44;32.05;;;10.38;;
34643;SDS011;26931;43.498;-1.506;2022-11-09T06:52:10;32.70;;;9.93;;
34643;SDS011;26931;43.498;-1.506;2022-11-09T06:54:36;36.88;;;10.13;;
34643;SDS011;26931;43.498;-1.506;2022-11-09T06:57:02;37.70;;;9.88;;
34643;SDS011;26931;43.498;-1.506;2022-11-09T06:59:28;33.50;;;8.48;;
34643;SDS011;26931;43.498;-1.506;2022-11-09T07:01:54;26.10;;;7.97;;
34643;SDS011;26931;43.498;-1.506;2022-11-09T07:04:20;36.70;;;8.38;;
34643;SDS011;26931;43.498;-1.506;2022-11-09T07:06:46;34.75;;;8.10;;
34643;SDS011;26931;43.498;-1.506;2022-11-09T07:09:13;32.08;;;8.40;;
34643;SDS011;26931;43.498;-1.506;2022-11-09T07:11:39;26.02;;;7.20;;
34643;SDS011;26931;43.498;-1.506;2022-11-09T07:14:05;36.83;;;9.27;;
34643;SDS011;26931;43.498;-1.506;2022-11-09T07:16:31;36.00;;;9.43;;
34643;SDS011;26931;43.498;-1.506;2022-11-09T07:18:57;30.52;;;9.07;;
34643;SDS011;26931;43.498;-1.506;2022-11-09T07:21:23;43.75;;;10.88;;
34643;SDS011;26931;43.498;-1.506;2022-11-09T07:23:49;45.22;;;12.55;;
34643;SDS011;26931;43.498;-1.506;2022-11-09T07:26:15;56.00;;;12.95;;
34643;SDS011;26931;43.498;-1.506;2022-11-09T07:28:42;59.17;;;13.18;;
34643;SDS011;26931;43.498;-1.506;2022-11-09T07:31:08;45.60;;;13.00;;
34643;SDS011;26931;43.498;-1.506;2022-11-09T07:33:35;55.47;;;14.30;;
34643;SDS011;26931;43.498;-1.506;2022-11-09T07:36:02;44.53;;;13.45;;
34643;SDS011;26931;43.498;-1.506;2022-11-09T07:38:29;61.90;;;15.15;;
34643;SDS011;26931;43.498;-1.506;2022-11-09T07:40:59;62.05;;;15.32;;
34643;SDS011;26931;43.498;-1.506;2022-11-09T07:43:26;61.75;;;13.73;;
34643;SDS011;26931;43.498;-1.506;2022-11-09T07:45:53;56.80;;;13.77;;
34643;SDS011;26931;43.498;-1.506;2022-11-09T07:48:20;50.75;;;12.85;;
34643;SDS011;26931;43.498;-1.506;2022-11-09T07:50:46;46.45;;;12.90;;
34643;SDS011;26931;43.498;-1.506;2022-11-09T07:53:13;43.17;;;12.02;;
34643;SDS011;26931;43.498;-1.506;2022-11-09T07:55:40;47.70;;;11.00;;
34643;SDS011;26931;43.498;-1.506;2022-11-09T07:58:09;48.25;;;12.57;;
34643;SDS011;26931;43.498;-1.506;2022-11-09T08:00:37;52.90;;;12.55;;
34643;SDS011;26931;43.498;-1.506;2022-11-09T08:03:05;36.78;;;10.25;;
34643;SDS011;26931;43.498;-1.506;2022-11-09T08:05:32;37.28;;;11.05;;
34643;SDS011;26931;43.498;-1.506;2022-11-09T08:08:03;45.80;;;13.20;;
34643;SDS011;26931;43.498;-1.506;2022-11-09T08:10:31;39.25;;;12.38;;
34643;SDS011;26931;43.498;-1.506;2022-11-09T08:12:59;41.70;;;11.50;;
34643;SDS011;26931;43.498;-1.506;2022-11-09T08:15:26;46.50;;;11.68;;
34643;SDS011;26931;43.498;-1.506;2022-11-09T08:17:53;43.03;;;10.05;;
34643;SDS011;26931;43.498;-1.506;2022-11-09T08:20:19;39.75;;;10.48;;
34643;SDS011;26931;43.498;-1.506;2022-11-09T08:22:45;36.95;;;10.10;;
34643;SDS011;26931;43.498;-1.506;2022-11-09T08:25:12;42.75;;;10.35;;
34643;SDS011;26931;43.498;-1.506;2022-11-09T08:27:38;39.78;;;10.60;;
34643;SDS011;26931;43.498;-1.506;2022-11-09T08:30:05;41.00;;;10.68;;
34643;SDS011;26931;43.498;-1.506;2022-11-09T08:32:34;37.45;;;10.65;;
34643;SDS011;26931;43.498;-1.506;2022-11-09T08:35:00;39.92;;;9.90;;
34643;SDS011;26931;43.498;-1.506;2022-11-09T08:37:26;32.15;;;8.63;;
34643;SDS011;26931;43.498;-1.506;2022-11-09T08:39:52;37.95;;;9.07;;
34643;SDS011;26931;43.498;-1.506;2022-11-09T08:42:18;38.10;;;8.50;;
34643;SDS011;26931;43.498;-1.506;2022-11-09T08:44:44;36.38;;;9.38;;
34643;SDS011;26931;43.498;-1.506;2022-11-09T08:47:09;40.10;;;11.18;;
34643;SDS011;26931;43.498;-1.506;2022-11-09T08:49:35;32.72;;;9.48;;
34643;SDS011;26931;43.498;-1.506;2022-11-09T08:52:01;41.83;;;10.07;;
34643;SDS011;26931;43.498;-1.506;2022-11-09T08:54:27;35.25;;;8.73;;
34643;SDS011;26931;43.498;-1.506;2022-11-09T08:56:54;35.10;;;8.13;;
34643;SDS011;26931;43.498;-1.506;2022-11-09T08:59:21;27.17;;;7.53;;
34643;SDS011;26931;43.498;-1.506;2022-11-09T09:01:47;25.92;;;6.38;;
34643;SDS011;26931;43.498;-1.506;2022-11-09T09:04:12;21.70;;;6.53;;
34643;SDS011;26931;43.498;-1.506;2022-11-09T09:06:38;22.23;;;5.43;;
34643;SDS011;26931;43.498;-1.506;2022-11-09T09:09:07;18.17;;;5.28;;
34643;SDS011;26931;43.498;-1.506;2022-11-09T09:11:33;24.52;;;5.50;;
34643;SDS011;26931;43.498;-1.506;2022-11-09T09:13:59;23.35;;;5.03;;
34643;SDS011;26931;43.498;-1.506;2022-11-09T09:16:25;17.45;;;5.55;;
34643;SDS011;26931;43.498;-1.506;2022-11-09T09:18:51;34.10;;;6.28;;
34643;SDS011;26931;43.498;-1.506;2022-11-09T09:21:18;29.25;;;6.90;;
34643;SDS011;26931;43.498;-1.506;2022-11-09T09:23:46;35.38;;;8.52;;
34643;SDS011;26931;43.498;-1.506;2022-11-09T09:26:16;26.10;;;7.70;;
34643;SDS011;26931;43.498;-1.506;2022-11-09T09:28:42;28.95;;;7.85;;
34643;SDS011;26931;43.498;-1.506;2022-11-09T09:31:08;29.55;;;7.30;;
34643;SDS011;26931;43.498;-1.506;2022-11-09T09:33:34;24.95;;;5.95;;
34643;SDS011;26931;43.498;-1.506;2022-11-09T09:36:01;19.00;;;5.70;;
34643;SDS011;26931;43.498;-1.506;2022-11-09T09:38:27;20.67;;;6.15;;
34643;SDS011;26931;43.498;-1.506;2022-11-09T09:40:58;26.73;;;7.47;;
34643;SDS011;26931;43.498;-1.506;2022-11-09T09:43:27;33.60;;;6.95;;
34643;SDS011;26931;43.498;-1.506;2022-11-09T09:45:59;25.58;;;6.03;;
34643;SDS011;26931;43.498;-1.506;2022-11-09T09:48:31;25.02;;;6.00;;
34643;SDS011;26931;43.498;-1.506;2022-11-09T09:51:09;22.00;;;5.45;;
34643;SDS011;26931;43.498;-1.506;2022-11-09T09:53:59;24.75;;;6.35;;
34643;SDS011;26931;43.498;-1.506;2022-11-09T09:56:37;19.40;;;4.88;;
34643;SDS011;26931;43.498;-1.506;2022-11-09T09:59:09;22.15;;;5.55;;
34643;SDS011;26931;43.498;-1.506;2022-11-09T10:01:42;20.35;;;5.30;;
34643;SDS011;26931;43.498;-1.506;2022-11-09T10:04:13;26.20;;;6.13;;
34643;SDS011;26931;43.498;-1.506;2022-11-09T10:06:54;22.80;;;5.50;;
34643;SDS011;26931;43.498;-1.506;2022-11-09T10:20:06;20.95;;;4.35;;
34643;SDS011;26931;43.498;-1.506;2022-11-09T10:27:53;20.70;;;5.03;;
34643;SDS011;26931;43.498;-1.506;2022-11-09T10:30:21;18.50;;;4.97;;
34643;SDS011;26931;43.498;-1.506;2022-11-09T10:32:55;23.88;;;5.50;;
34643;SDS011;26931;43.498;-1.506;2022-11-09T10:37:59;23.60;;;4.93;;
34643;SDS011;26931;43.498;-1.506;2022-11-09T10:40:32;20.60;;;5.07;;
34643;SDS011;26931;43.498;-1.506;2022-11-09T10:43:10;20.42;;;4.50;;
34643;SDS011;26931;43.498;-1.506;2022-11-09T10:45:38;19.55;;;5.32;;
34643;SDS011;26931;43.498;-1.506;2022-11-09T10:48:06;13.48;;;3.65;;
34643;SDS011;26931;43.498;-1.506;2022-11-09T10:50:37;18.05;;;4.40;;
34643;SDS011;26931;43.498;-1.506;2022-11-09T10:53:16;13.35;;;2.97;;
34643;SDS011;26931;43.498;-1.506;2022-11-09T11:01:00;12.80;;;4.32;;
34643;SDS011;26931;43.498;-1.506;2022-11-09T11:03:38;17.63;;;4.57;;
34643;SDS011;26931;43.498;-1.506;2022-11-09T11:06:11;19.10;;;4.57;;
34643;SDS011;26931;43.498;-1.506;2022-11-09T11:11:28;18.83;;;4.47;;
34643;SDS011;26931;43.498;-1.506;2022-11-09T11:16:40;22.65;;;5.70;;
34643;SDS011;26931;43.498;-1.506;2022-11-09T11:24:51;24.85;;;5.70;;
34643;SDS011;26931;43.498;-1.506;2022-11-09T11:30:44;24.65;;;5.57;;
34643;SDS011;26931;43.498;-1.506;2022-11-09T11:33:14;21.95;;;5.55;;
34643;SDS011;26931;43.498;-1.506;2022-11-09T11:46:21;17.98;;;4.57;;
34643;SDS011;26931;43.498;-1.506;2022-11-09T11:49:18;18.02;;;4.93;;
34643;SDS011;26931;43.498;-1.506;2022-11-09T11:54:42;18.33;;;5.13;;
34643;SDS011;26931;43.498;-1.506;2022-11-09T11:57:21;25.17;;;6.00;;
34643;SDS011;26931;43.498;-1.506;2022-11-09T12:00:17;22.80;;;6.93;;
34643;SDS011;26931;43.498;-1.506;2022-11-09T12:08:36;22.48;;;7.32;;
34643;SDS011;26931;43.498;-1.506;2022-11-09T12:14:15;23.95;;;7.15;;
34643;SDS011;26931;43.498;-1.506;2022-11-09T12:17:06;19.17;;;5.30;;
34643;SDS011;26931;43.498;-1.506;2022-11-09T12:28:17;17.23;;;5.28;;
34643;SDS011;26931;43.498;-1.506;2022-11-09T12:31:05;22.35;;;6.57;;
34643;SDS011;26931;43.498;-1.506;2022-11-09T12:33:57;21.10;;;5.90;;
34643;SDS011;26931;43.498;-1.506;2022-11-09T12:39:12;19.95;;;5.47;;
34643;SDS011;26931;43.498;-1.506;2022-11-09T12:41:55;16.80;;;5.85;;
34643;SDS011;26931;43.498;-1.506;2022-11-09T12:44:33;14.93;;;4.85;;
34643;SDS011;26931;43.498;-1.506;2022-11-09T12:47:10;19.40;;;5.63;;
34643;SDS011;26931;43.498;-1.506;2022-11-09T12:49:43;16.92;;;5.63;;
34643;SDS011;26931;43.498;-1.506;2022-11-09T12:52:14;15.05;;;4.78;;
34643;SDS011;26931;43.498;-1.506;2022-11-09T12:54:48;16.08;;;5.65;;
34643;SDS011;26931;43.498;-1.506;2022-11-09T12:57:22;12.75;;;4.80;;
34643;SDS011;26931;43.498;-1.506;2022-11-09T12:59:54;20.95;;;5.55;;
34643;SDS011;26931;43.498;-1.506;2022-11-09T13:02:33;17.92;;;5.35;;
34643;SDS011;26931;43.498;-1.506;2022-11-09T13:05:25;15.77;;;4.78;;
34643;SDS011;26931;43.498;-1.506;2022-11-09T13:08:54;18.35;;;4.93;;
34643;SDS011;26931;43.498;-1.506;2022-11-09T13:11:08;13.32;;;3.55;;
34643;SDS011;26931;43.498;-1.506;2022-11-09T13:16:46;17.83;;;4.72;;
34643;SDS011;26931;43.498;-1.506;2022-11-09T13:21:59;15.68;;;4.75;;
34643;SDS011;26931;43.498;-1.506;2022-11-09T13:24:58;16.08;;;4.78;;
34643;SDS011;26931;43.498;-1.506;2022-11-09T13:27:47;14.70;;;5.43;;
34643;SDS011;26931;43.498;-1.506;2022-11-09T13:38:15;18.77;;;5.60;;
34643;SDS011;26931;43.498;-1.506;2022-11-09T13:40:44;19.52;;;6.30;;
34643;SDS011;26931;43.498;-1.506;2022-11-09T13:43:20;16.52;;;5.53;;
34643;SDS011;26931;43.498;-1.506;2022-11-09T13:48:22;18.63;;;5.63;;
34643;SDS011;26931;43.498;-1.506;2022-11-09T13:50:50;15.88;;;5.43;;
34643;SDS011;26931;43.498;-1.506;2022-11-09T13:56:12;16.50;;;5.18;;
34643;SDS011;26931;43.498;-1.506;2022-11-09T14:03:56;16.63;;;6.13;;
34643;SDS011;26931;43.498;-1.506;2022-11-09T14:06:23;18.90;;;5.60;;
34643;SDS011;26931;43.498;-1.506;2022-11-09T14:08:49;17.20;;;6.07;;
34643;SDS011;26931;43.498;-1.506;2022-11-09T14:14:30;21.83;;;5.90;;
34643;SDS011;26931;43.498;-1.506;2022-11-09T14:20:24;19.27;;;6.63;;
34643;SDS011;26931;43.498;-1.506;2022-11-09T14:22:52;23.17;;;7.30;;
34643;SDS011;26931;43.498;-1.506;2022-11-09T14:25:19;19.73;;;6.63;;
34643;SDS011;26931;43.498;-1.506;2022-11-09T14:27:52;23.13;;;6.90;;
34643;SDS011;26931;43.498;-1.506;2022-11-09T14:30:23;21.30;;;6.38;;
34643;SDS011;26931;43.498;-1.506;2022-11-09T14:32:52;22.70;;;5.50;;
34643;SDS011;26931;43.498;-1.506;2022-11-09T14:35:21;22.50;;;5.95;;
34643;SDS011;26931;43.498;-1.506;2022-11-09T14:37:55;17.77;;;4.70;;
34643;SDS011;26931;43.498;-1.506;2022-11-09T14:40:26;20.80;;;5.53;;
34643;SDS011;26931;43.498;-1.506;2022-11-09T14:42:56;17.65;;;4.40;;
34643;SDS011;26931;43.498;-1.506;2022-11-09T14:45:45;15.75;;;4.85;;
34643;SDS011;26931;43.498;-1.506;2022-11-09T14:48:16;15.82;;;4.75;;
34643;SDS011;26931;43.498;-1.506;2022-11-09T14:50:47;14.05;;;5.10;;
34643;SDS011;26931;43.498;-1.506;2022-11-09T14:53:21;17.02;;;5.10;;
34643;SDS011;26931;43.498;-1.506;2022-11-09T14:55:52;17.15;;;5.35;;
34643;SDS011;26931;43.498;-1.506;2022-11-09T14:58:20;18.33;;;5.10;;
34643;SDS011;26931;43.498;-1.506;2022-11-09T15:04:06;15.48;;;4.90;;
34643;SDS011;26931;43.498;-1.506;2022-11-09T15:06:47;20.80;;;5.63;;
34643;SDS011;26931;43.498;-1.506;2022-11-09T15:09:17;16.92;;;5.80;;
34643;SDS011;26931;43.498;-1.506;2022-11-09T15:11:45;16.45;;;5.88;;
34643;SDS011;26931;43.498;-1.506;2022-11-09T15:16:43;20.55;;;5.45;;
34643;SDS011;26931;43.498;-1.506;2022-11-09T15:21:48;13.07;;;4.95;;
34643;SDS011;26931;43.498;-1.506;2022-11-09T15:24:15;21.25;;;5.75;;
34643;SDS011;26931;43.498;-1.506;2022-11-09T15:26:44;19.50;;;5.30;;
34643;SDS011;26931;43.498;-1.506;2022-11-09T15:29:45;17.00;;;5.45;;
34643;SDS011;26931;43.498;-1.506;2022-11-09T15:32:16;15.98;;;5.28;;
34643;SDS011;26931;43.498;-1.506;2022-11-09T15:37:19;14.25;;;4.88;;
34643;SDS011;26931;43.498;-1.506;2022-11-09T15:40:04;24.45;;;5.70;;
34643;SDS011;26931;43.498;-1.506;2022-11-09T15:42:34;20.50;;;6.03;;
34643;SDS011;26931;43.498;-1.506;2022-11-09T15:45:00;14.65;;;5.20;;
34643;SDS011;26931;43.498;-1.506;2022-11-09T15:47:34;27.05;;;6.10;;
34643;SDS011;26931;43.498;-1.506;2022-11-09T15:50:05;23.23;;;5.80;;
34643;SDS011;26931;43.498;-1.506;2022-11-09T15:52:39;16.13;;;6.13;;
34643;SDS011;26931;43.498;-1.506;2022-11-09T15:55:12;24.48;;;6.18;;
34643;SDS011;26931;43.498;-1.506;2022-11-09T15:57:39;22.88;;;6.38;;
34643;SDS011;26931;43.498;-1.506;2022-11-09T16:00:05;22.83;;;6.97;;
34643;SDS011;26931;43.498;-1.506;2022-11-09T16:02:35;25.55;;;6.70;;
34643;SDS011;26931;43.498;-1.506;2022-11-09T16:05:00;19.00;;;5.97;;
34643;SDS011;26931;43.498;-1.506;2022-11-09T16:07:26;16.85;;;5.78;;
34643;SDS011;26931;43.498;-1.506;2022-11-09T16:09:52;23.27;;;6.13;;
34643;SDS011;26931;43.498;-1.506;2022-11-09T16:12:18;25.52;;;6.47;;
34643;SDS011;26931;43.498;-1.506;2022-11-09T16:14:44;20.58;;;6.18;;
34643;SDS011;26931;43.498;-1.506;2022-11-09T16:17:10;18.05;;;6.60;;
34643;SDS011;26931;43.498;-1.506;2022-11-09T16:19:35;16.83;;;5.00;;
34643;SDS011;26931;43.498;-1.506;2022-11-09T16:22:03;22.27;;;6.32;;
34643;SDS011;26931;43.498;-1.506;2022-11-09T16:24:30;31.45;;;7.13;;
34643;SDS011;26931;43.498;-1.506;2022-11-09T16:26:57;21.35;;;6.80;;
34643;SDS011;26931;43.498;-1.506;2022-11-09T16:29:25;22.58;;;6.63;;
34643;SDS011;26931;43.498;-1.506;2022-11-09T16:31:51;23.33;;;7.15;;
34643;SDS011;26931;43.498;-1.506;2022-11-09T16:34:18;20.25;;;6.22;;